KNRB/NRB METAR and TAF weather

Enter ICAO airport designator
Station Type Date Time Source
KNRB METAR 2019/08/25 17:52 UTC NOAA

KNRB 251752Z 02015KT 10SM SCT020 BKN035 BKN250 29/24 A3001 RMK AO2 SLP160 60001 T02940239 10306 20278 55002


Station Type Date Time Source
KNRB Decoded METAR 2019/08/25 17:52 UTC NOAA

Station name not available
Aug 25, 2019 - 01:52 PM EDT / 2019.08.25 1752 UTC
Wind: from the NNE (020 degrees) at 17 MPH (15 KT):0
Visibility: 10 mile(s):0
Sky conditions: mostly cloudy
Temperature: 84.9 F (29.4 C)
Dew Point: 75.0 F (23.9 C)
Relative Humidity: 72%
Pressure (altimeter): 30.01 in. Hg (1016 hPa)
Pressure tendency: 0.01 inches (0.2 hPa) lower than three hours ago
ob: KNRB 251752Z 02015KT 10SM SCT020 BKN035 BKN250 29/24 A3001 RMK AO2 SLP160 60001 T02940239 10306 20278 55002
cycle: 18

Station Type Date Time Source
KNRB TAF 2019/08/25 17:20 UTC NOAA

TAF
AMD KNRB 2517/2615 03018G25KT 9999 SCT009 SCT100 BKN250 QNH2993INS
BECMG 2522/2600 04012KT SCT010 BKN040 BKN100 BKN250 QNH2994INS
BECMG 2602/2603 05010KT QNH2992INS T30/2519Z T26/2609Z
AMD 1710 FN00197

Example: see airport list